sensor_id;sensor_type;location;lat;lon;timestamp;temperature;humidity
65291;SHT30;51893;59.754;10.110;2023-05-07T00:00:21;3.18;54.19
65291;SHT30;51893;59.754;10.110;2023-05-07T00:03:10;3.19;54.12
65291;SHT30;51893;59.754;10.110;2023-05-07T00:05:39;3.20;53.87
65291;SHT30;51893;59.754;10.110;2023-05-07T00:08:12;3.19;54.20
65291;SHT30;51893;59.754;10.110;2023-05-07T00:10:41;3.15;54.65
65291;SHT30;51893;59.754;10.110;2023-05-07T00:13:10;3.14;54.34
65291;SHT30;51893;59.754;10.110;2023-05-07T00:15:38;3.10;54.28
65291;SHT30;51893;59.754;10.110;2023-05-07T00:18:10;3.03;54.31
65291;SHT30;51893;59.754;10.110;2023-05-07T00:20:41;2.98;54.62
65291;SHT30;51893;59.754;10.110;2023-05-07T00:23:13;2.94;54.61
65291;SHT30;51893;59.754;10.110;2023-05-07T00:25:41;2.86;54.64
65291;SHT30;51893;59.754;10.110;2023-05-07T00:28:09;2.83;55.18
65291;SHT30;51893;59.754;10.110;2023-05-07T00:30:37;2.78;55.28
65291;SHT30;51893;59.754;10.110;2023-05-07T00:33:05;2.80;55.29
65291;SHT30;51893;59.754;10.110;2023-05-07T00:35:36;2.86;55.65
65291;SHT30;51893;59.754;10.110;2023-05-07T00:38:05;2.87;55.56
65291;SHT30;51893;59.754;10.110;2023-05-07T00:40:33;2.80;55.94
65291;SHT30;51893;59.754;10.110;2023-05-07T00:43:02;2.80;57.11
65291;SHT30;51893;59.754;10.110;2023-05-07T00:45:30;2.83;57.18
65291;SHT30;51893;59.754;10.110;2023-05-07T00:48:01;2.87;57.10
65291;SHT30;51893;59.754;10.110;2023-05-07T00:50:34;2.88;56.22
65291;SHT30;51893;59.754;10.110;2023-05-07T00:53:02;2.86;55.68
65291;SHT30;51893;59.754;10.110;2023-05-07T00:55:32;2.79;55.80
65291;SHT30;51893;59.754;10.110;2023-05-07T00:58:01;2.75;55.83
65291;SHT30;51893;59.754;10.110;2023-05-07T01:00:30;2.64;55.88
65291;SHT30;51893;59.754;10.110;2023-05-07T01:02:59;2.60;56.18
65291;SHT30;51893;59.754;10.110;2023-05-07T01:05:33;2.56;56.52
65291;SHT30;51893;59.754;10.110;2023-05-07T01:08:03;2.47;56.76
65291;SHT30;51893;59.754;10.110;2023-05-07T01:10:34;2.46;56.72
65291;SHT30;51893;59.754;10.110;2023-05-07T01:13:02;2.46;56.78
65291;SHT30;51893;59.754;10.110;2023-05-07T01:15:32;2.44;56.91
65291;SHT30;51893;59.754;10.110;2023-05-07T01:18:02;2.38;57.22
65291;SHT30;51893;59.754;10.110;2023-05-07T01:20:32;2.34;57.18
65291;SHT30;51893;59.754;10.110;2023-05-07T01:23:02;2.33;57.74
65291;SHT30;51893;59.754;10.110;2023-05-07T01:25:31;2.35;58.16
65291;SHT30;51893;59.754;10.110;2023-05-07T01:28:00;2.33;57.41
65291;SHT30;51893;59.754;10.110;2023-05-07T01:30:32;2.25;57.33
65291;SHT30;51893;59.754;10.110;2023-05-07T01:33:06;2.22;57.68
65291;SHT30;51893;59.754;10.110;2023-05-07T01:35:41;2.22;58.06
65291;SHT30;51893;59.754;10.110;2023-05-07T01:38:17;2.25;58.87
65291;SHT30;51893;59.754;10.110;2023-05-07T01:40:51;2.19;58.61
65291;SHT30;51893;59.754;10.110;2023-05-07T01:43:19;2.10;58.31
65291;SHT30;51893;59.754;10.110;2023-05-07T01:45:49;2.10;58.33
65291;SHT30;51893;59.754;10.110;2023-05-07T01:48:18;2.10;58.23
65291;SHT30;51893;59.754;10.110;2023-05-07T01:50:51;2.11;58.37
65291;SHT30;51893;59.754;10.110;2023-05-07T01:53:23;2.00;58.66
65291;SHT30;51893;59.754;10.110;2023-05-07T01:55:51;1.94;58.80
65291;SHT30;51893;59.754;10.110;2023-05-07T01:58:19;1.85;58.66
65291;SHT30;51893;59.754;10.110;2023-05-07T02:00:47;1.78;58.86
65291;SHT30;51893;59.754;10.110;2023-05-07T02:03:16;1.75;58.88
65291;SHT30;51893;59.754;10.110;2023-05-07T02:05:44;1.73;58.83
65291;SHT30;51893;59.754;10.110;2023-05-07T02:08:14;1.71;58.60
65291;SHT30;51893;59.754;10.110;2023-05-07T02:10:43;1.72;58.49
65291;SHT30;51893;59.754;10.110;2023-05-07T02:13:12;1.67;59.06
65291;SHT30;51893;59.754;10.110;2023-05-07T02:15:42;1.66;58.97
65291;SHT30;51893;59.754;10.110;2023-05-07T02:18:12;1.69;59.33
65291;SHT30;51893;59.754;10.110;2023-05-07T02:20:40;1.64;59.17
65291;SHT30;51893;59.754;10.110;2023-05-07T02:23:11;1.62;59.00
65291;SHT30;51893;59.754;10.110;2023-05-07T02:25:41;1.60;58.97
65291;SHT30;51893;59.754;10.110;2023-05-07T02:28:10;1.57;59.29
65291;SHT30;51893;59.754;10.110;2023-05-07T02:30:38;1.49;59.29
65291;SHT30;51893;59.754;10.110;2023-05-07T02:33:11;1.47;59.89
65291;SHT30;51893;59.754;10.110;2023-05-07T02:35:40;1.51;60.73
65291;SHT30;51893;59.754;10.110;2023-05-07T02:38:09;1.55;60.59
65291;SHT30;51893;59.754;10.110;2023-05-07T02:40:41;1.58;60.81
65291;SHT30;51893;59.754;10.110;2023-05-07T02:43:09;1.60;61.08
65291;SHT30;51893;59.754;10.110;2023-05-07T02:45:37;1.62;61.03
65291;SHT30;51893;59.754;10.110;2023-05-07T02:48:09;1.53;60.72
65291;SHT30;51893;59.754;10.110;2023-05-07T02:50:38;1.46;61.04
65291;SHT30;51893;59.754;10.110;2023-05-07T02:53:09;1.41;61.33
65291;SHT30;51893;59.754;10.110;2023-05-07T02:55:37;1.34;61.84
65291;SHT30;51893;59.754;10.110;2023-05-07T02:58:07;1.31;62.43
65291;SHT30;51893;59.754;10.110;2023-05-07T03:00:38;1.19;63.07
65291;SHT30;51893;59.754;10.110;2023-05-07T03:03:09;1.11;63.41
65291;SHT30;51893;59.754;10.110;2023-05-07T03:05:39;1.15;63.83
65291;SHT30;51893;59.754;10.110;2023-05-07T03:08:09;1.23;63.71
65291;SHT30;51893;59.754;10.110;2023-05-07T03:10:40;1.25;63.20
65291;SHT30;51893;59.754;10.110;2023-05-07T03:13:16;1.22;62.95
65291;SHT30;51893;59.754;10.110;2023-05-07T03:15:44;1.18;62.93
65291;SHT30;51893;59.754;10.110;2023-05-07T03:18:13;1.17;63.17
65291;SHT30;51893;59.754;10.110;2023-05-07T03:20:43;1.14;63.44
65291;SHT30;51893;59.754;10.110;2023-05-07T03:23:12;1.13;64.11
65291;SHT30;51893;59.754;10.110;2023-05-07T03:25:40;1.11;64.12
65291;SHT30;51893;59.754;10.110;2023-05-07T03:28:11;1.11;64.40
65291;SHT30;51893;59.754;10.110;2023-05-07T03:30:45;1.10;64.44
65291;SHT30;51893;59.754;10.110;2023-05-07T03:33:15;1.07;64.70
65291;SHT30;51893;59.754;10.110;2023-05-07T03:35:44;1.05;64.95
65291;SHT30;51893;59.754;10.110;2023-05-07T03:38:13;1.03;65.30
65291;SHT30;51893;59.754;10.110;2023-05-07T03:40:41;1.08;65.25
65291;SHT30;51893;59.754;10.110;2023-05-07T03:43:11;1.09;65.36
65291;SHT30;51893;59.754;10.110;2023-05-07T03:45:40;1.13;65.04
65291;SHT30;51893;59.754;10.110;2023-05-07T03:48:10;1.13;64.76
65291;SHT30;51893;59.754;10.110;2023-05-07T03:50:41;1.12;64.70
65291;SHT30;51893;59.754;10.110;2023-05-07T03:53:08;1.14;64.75
65291;SHT30;51893;59.754;10.110;2023-05-07T03:55:37;1.17;64.79
65291;SHT30;51893;59.754;10.110;2023-05-07T03:58:07;1.12;64.58
65291;SHT30;51893;59.754;10.110;2023-05-07T04:00:34;1.10;64.62
65291;SHT30;51893;59.754;10.110;2023-05-07T04:03:08;1.07;64.39
65291;SHT30;51893;59.754;10.110;2023-05-07T04:05:36;1.07;64.44
65291;SHT30;51893;59.754;10.110;2023-05-07T04:08:04;1.13;64.36
65291;SHT30;51893;59.754;10.110;2023-05-07T04:10:33;1.19;64.34
65291;SHT30;51893;59.754;10.110;2023-05-07T04:13:03;1.25;63.96
65291;SHT30;51893;59.754;10.110;2023-05-07T04:15:31;1.29;63.63
65291;SHT30;51893;59.754;10.110;2023-05-07T04:17:59;1.30;63.50
65291;SHT30;51893;59.754;10.110;2023-05-07T04:20:28;1.30;63.40
65291;SHT30;51893;59.754;10.110;2023-05-07T04:22:59;1.37;63.45
65291;SHT30;51893;59.754;10.110;2023-05-07T04:25:28;1.42;63.18
65291;SHT30;51893;59.754;10.110;2023-05-07T04:27:59;1.48;63.32
65291;SHT30;51893;59.754;10.110;2023-05-07T04:30:29;1.52;62.94
65291;SHT30;51893;59.754;10.110;2023-05-07T04:32:58;1.54;62.88
65291;SHT30;51893;59.754;10.110;2023-05-07T04:35:33;1.59;62.82
65291;SHT30;51893;59.754;10.110;2023-05-07T04:38:04;1.63;62.63
65291;SHT30;51893;59.754;10.110;2023-05-07T04:40:32;1.70;62.59
65291;SHT30;51893;59.754;10.110;2023-05-07T04:43:08;1.74;62.24
65291;SHT30;51893;59.754;10.110;2023-05-07T04:45:37;1.79;62.16
65291;SHT30;51893;59.754;10.110;2023-05-07T04:48:10;1.82;62.05
65291;SHT30;51893;59.754;10.110;2023-05-07T04:50:38;1.87;62.00
65291;SHT30;51893;59.754;10.110;2023-05-07T04:53:08;1.91;62.12
65291;SHT30;51893;59.754;10.110;2023-05-07T04:55:38;1.94;62.11
65291;SHT30;51893;59.754;10.110;2023-05-07T04:58:07;1.97;62.01
65291;SHT30;51893;59.754;10.110;2023-05-07T05:00:35;2.03;61.69
65291;SHT30;51893;59.754;10.110;2023-05-07T05:03:03;2.02;61.40
65291;SHT30;51893;59.754;10.110;2023-05-07T05:05:33;2.02;61.03
65291;SHT30;51893;59.754;10.110;2023-05-07T05:08:03;2.04;61.03
65291;SHT30;51893;59.754;10.110;2023-05-07T05:10:33;2.09;61.10
65291;SHT30;51893;59.754;10.110;2023-05-07T05:13:02;2.10;60.74
65291;SHT30;51893;59.754;10.110;2023-05-07T05:15:37;2.12;60.91
65291;SHT30;51893;59.754;10.110;2023-05-07T05:18:06;2.10;61.09
65291;SHT30;51893;59.754;10.110;2023-05-07T05:20:34;2.11;61.44
65291;SHT30;51893;59.754;10.110;2023-05-07T05:23:02;2.18;61.36
65291;SHT30;51893;59.754;10.110;2023-05-07T05:25:30;2.18;61.41
65291;SHT30;51893;59.754;10.110;2023-05-07T05:28:08;2.20;61.53
65291;SHT30;51893;59.754;10.110;2023-05-07T05:30:37;2.25;61.53
65291;SHT30;51893;59.754;10.110;2023-05-07T05:33:09;2.37;61.08
65291;SHT30;51893;59.754;10.110;2023-05-07T05:35:37;2.48;60.96
65291;SHT30;51893;59.754;10.110;2023-05-07T05:38:05;2.59;60.87
65291;SHT30;51893;59.754;10.110;2023-05-07T05:40:33;2.67;60.91
65291;SHT30;51893;59.754;10.110;2023-05-07T05:43:02;2.75;60.46
65291;SHT30;51893;59.754;10.110;2023-05-07T05:45:32;2.82;60.25
65291;SHT30;51893;59.754;10.110;2023-05-07T05:48:03;2.93;60.01
65291;SHT30;51893;59.754;10.110;2023-05-07T05:50:33;3.03;59.64
65291;SHT30;51893;59.754;10.110;2023-05-07T05:53:05;3.13;59.33
65291;SHT30;51893;59.754;10.110;2023-05-07T05:55:36;3.25;58.95
65291;SHT30;51893;59.754;10.110;2023-05-07T05:58:04;3.33;58.43
65291;SHT30;51893;59.754;10.110;2023-05-07T06:00:32;3.41;58.21
65291;SHT30;51893;59.754;10.110;2023-05-07T06:03:00;3.46;58.44
65291;SHT30;51893;59.754;10.110;2023-05-07T06:05:29;3.49;58.56
65291;SHT30;51893;59.754;10.110;2023-05-07T06:07:58;3.47;58.75
65291;SHT30;51893;59.754;10.110;2023-05-07T06:10:28;3.53;59.04
65291;SHT30;51893;59.754;10.110;2023-05-07T06:12:59;3.53;59.06
65291;SHT30;51893;59.754;10.110;2023-05-07T06:15:28;3.58;58.91
65291;SHT30;51893;59.754;10.110;2023-05-07T06:18:00;3.68;59.01
65291;SHT30;51893;59.754;10.110;2023-05-07T06:20:28;3.77;58.79
65291;SHT30;51893;59.754;10.110;2023-05-07T06:22:56;3.82;58.67
65291;SHT30;51893;59.754;10.110;2023-05-07T06:25:24;3.89;58.86
65291;SHT30;51893;59.754;10.110;2023-05-07T06:27:55;3.97;58.58
65291;SHT30;51893;59.754;10.110;2023-05-07T06:30:24;3.97;58.42
65291;SHT30;51893;59.754;10.110;2023-05-07T06:32:53;4.01;58.19
65291;SHT30;51893;59.754;10.110;2023-05-07T06:35:22;4.15;58.27
65291;SHT30;51893;59.754;10.110;2023-05-07T06:37:52;4.30;57.96
65291;SHT30;51893;59.754;10.110;2023-05-07T06:40:24;4.39;57.64
65291;SHT30;51893;59.754;10.110;2023-05-07T06:42:55;4.53;57.69
65291;SHT30;51893;59.754;10.110;2023-05-07T06:45:25;4.61;57.29
65291;SHT30;51893;59.754;10.110;2023-05-07T06:47:55;4.71;57.38
65291;SHT30;51893;59.754;10.110;2023-05-07T06:50:23;4.80;57.05
65291;SHT30;51893;59.754;10.110;2023-05-07T06:52:53;4.89;57.42
65291;SHT30;51893;59.754;10.110;2023-05-07T06:55:24;5.00;57.20
65291;SHT30;51893;59.754;10.110;2023-05-07T06:57:54;5.11;57.12
65291;SHT30;51893;59.754;10.110;2023-05-07T07:00:22;5.24;56.87
65291;SHT30;51893;59.754;10.110;2023-05-07T07:02:50;5.28;56.52
65291;SHT30;51893;59.754;10.110;2023-05-07T07:05:20;5.38;56.47
65291;SHT30;51893;59.754;10.110;2023-05-07T07:07:50;5.49;55.98
65291;SHT30;51893;59.754;10.110;2023-05-07T07:10:20;5.59;55.71
65291;SHT30;51893;59.754;10.110;2023-05-07T07:12:50;5.70;55.42
65291;SHT30;51893;59.754;10.110;2023-05-07T07:15:20;5.79;55.33
65291;SHT30;51893;59.754;10.110;2023-05-07T07:17:50;5.91;54.32
65291;SHT30;51893;59.754;10.110;2023-05-07T07:20:20;6.01;53.78
65291;SHT30;51893;59.754;10.110;2023-05-07T07:22:51;6.16;52.62
65291;SHT30;51893;59.754;10.110;2023-05-07T07:25:19;6.33;52.03
65291;SHT30;51893;59.754;10.110;2023-05-07T07:27:49;6.50;51.80
65291;SHT30;51893;59.754;10.110;2023-05-07T07:30:20;6.63;51.45
65291;SHT30;51893;59.754;10.110;2023-05-07T07:33:02;6.77;51.08
65291;SHT30;51893;59.754;10.110;2023-05-07T07:35:31;6.85;50.88
65291;SHT30;51893;59.754;10.110;2023-05-07T07:38:00;6.88;51.13
65291;SHT30;51893;59.754;10.110;2023-05-07T07:40:29;6.97;51.22
65291;SHT30;51893;59.754;10.110;2023-05-07T07:42:57;7.11;50.76
65291;SHT30;51893;59.754;10.110;2023-05-07T07:45:25;7.24;50.69
65291;SHT30;51893;59.754;10.110;2023-05-07T07:47:54;7.32;50.15
65291;SHT30;51893;59.754;10.110;2023-05-07T07:50:22;7.43;50.71
65291;SHT30;51893;59.754;10.110;2023-05-07T07:53:09;7.61;50.41
65291;SHT30;51893;59.754;10.110;2023-05-07T07:55:39;7.74;49.57
65291;SHT30;51893;59.754;10.110;2023-05-07T07:58:08;7.82;46.98
65291;SHT30;51893;59.754;10.110;2023-05-07T08:00:36;7.87;46.60
65291;SHT30;51893;59.754;10.110;2023-05-07T08:03:04;7.94;47.23
65291;SHT30;51893;59.754;10.110;2023-05-07T08:05:34;8.01;47.17
65291;SHT30;51893;59.754;10.110;2023-05-07T08:08:04;8.13;46.74
65291;SHT30;51893;59.754;10.110;2023-05-07T08:10:35;8.27;46.50
65291;SHT30;51893;59.754;10.110;2023-05-07T08:13:06;8.39;46.60
65291;SHT30;51893;59.754;10.110;2023-05-07T08:15:34;8.50;46.06
65291;SHT30;51893;59.754;10.110;2023-05-07T08:18:04;8.66;46.71
65291;SHT30;51893;59.754;10.110;2023-05-07T08:20:35;8.80;46.38
65291;SHT30;51893;59.754;10.110;2023-05-07T08:23:08;8.98;45.99
65291;SHT30;51893;59.754;10.110;2023-05-07T08:25:36;9.12;44.80
65291;SHT30;51893;59.754;10.110;2023-05-07T08:28:05;9.24;44.21
65291;SHT30;51893;59.754;10.110;2023-05-07T08:30:38;9.36;43.10
65291;SHT30;51893;59.754;10.110;2023-05-07T08:33:08;9.49;42.83
65291;SHT30;51893;59.754;10.110;2023-05-07T08:35:41;9.61;42.09
65291;SHT30;51893;59.754;10.110;2023-05-07T08:38:10;9.74;41.73
65291;SHT30;51893;59.754;10.110;2023-05-07T08:40:39;9.87;41.64
65291;SHT30;51893;59.754;10.110;2023-05-07T08:43:12;10.02;41.81
65291;SHT30;51893;59.754;10.110;2023-05-07T08:45:42;10.20;42.07
65291;SHT30;51893;59.754;10.110;2023-05-07T08:48:16;10.34;42.86
65291;SHT30;51893;59.754;10.110;2023-05-07T08:50:46;10.52;42.69
65291;SHT30;51893;59.754;10.110;2023-05-07T08:53:14;10.69;42.02
65291;SHT30;51893;59.754;10.110;2023-05-07T08:55:46;10.81;42.44
65291;SHT30;51893;59.754;10.110;2023-05-07T08:58:18;11.01;42.53
65291;SHT30;51893;59.754;10.110;2023-05-07T09:00:49;11.24;42.25
65291;SHT30;51893;59.754;10.110;2023-05-07T09:03:20;11.41;41.62
65291;SHT30;51893;59.754;10.110;2023-05-07T09:05:48;11.54;41.54
65291;SHT30;51893;59.754;10.110;2023-05-07T09:08:16;11.72;42.29
65291;SHT30;51893;59.754;10.110;2023-05-07T09:10:47;12.02;41.74
65291;SHT30;51893;59.754;10.110;2023-05-07T09:13:24;12.21;41.95
65291;SHT30;51893;59.754;10.110;2023-05-07T09:16:09;12.51;42.15
65291;SHT30;51893;59.754;10.110;2023-05-07T09:18:41;12.68;41.91
65291;SHT30;51893;59.754;10.110;2023-05-07T09:21:34;12.88;41.35
65291;SHT30;51893;59.754;10.110;2023-05-07T09:24:05;12.99;40.96
65291;SHT30;51893;59.754;10.110;2023-05-07T09:26:36;13.16;40.33
65291;SHT30;51893;59.754;10.110;2023-05-07T09:29:04;13.31;40.51
65291;SHT30;51893;59.754;10.110;2023-05-07T09:31:36;13.42;40.24
65291;SHT30;51893;59.754;10.110;2023-05-07T09:34:24;13.63;39.90
65291;SHT30;51893;59.754;10.110;2023-05-07T09:36:55;13.75;38.92
65291;SHT30;51893;59.754;10.110;2023-05-07T09:39:38;13.79;38.01
65291;SHT30;51893;59.754;10.110;2023-05-07T09:42:22;13.82;38.26
65291;SHT30;51893;59.754;10.110;2023-05-07T09:44:54;13.87;38.40
65291;SHT30;51893;59.754;10.110;2023-05-07T09:47:23;14.05;38.34
65291;SHT30;51893;59.754;10.110;2023-05-07T09:50:02;14.24;37.80
65291;SHT30;51893;59.754;10.110;2023-05-07T09:52:44;14.33;37.11
65291;SHT30;51893;59.754;10.110;2023-05-07T09:55:13;14.37;37.21
65291;SHT30;51893;59.754;10.110;2023-05-07T09:57:51;14.49;37.64
65291;SHT30;51893;59.754;10.110;2023-05-07T10:04:18;14.81;36.81
65291;SHT30;51893;59.754;10.110;2023-05-07T10:06:50;14.76;35.93
65291;SHT30;51893;59.754;10.110;2023-05-07T10:09:19;14.74;36.43
65291;SHT30;51893;59.754;10.110;2023-05-07T10:11:51;14.85;36.36
65291;SHT30;51893;59.754;10.110;2023-05-07T10:14:22;14.94;36.32
65291;SHT30;51893;59.754;10.110;2023-05-07T10:16:53;15.16;36.09
65291;SHT30;51893;59.754;10.110;2023-05-07T10:19:27;15.34;36.54
65291;SHT30;51893;59.754;10.110;2023-05-07T10:22:03;15.56;36.63
65291;SHT30;51893;59.754;10.110;2023-05-07T10:24:35;15.54;35.22
65291;SHT30;51893;59.754;10.110;2023-05-07T10:27:25;15.53;36.32
65291;SHT30;51893;59.754;10.110;2023-05-07T10:32:49;15.76;35.99
65291;SHT30;51893;59.754;10.110;2023-05-07T10:35:25;15.84;36.08
65291;SHT30;51893;59.754;10.110;2023-05-07T10:37:59;15.94;35.88
65291;SHT30;51893;59.754;10.110;2023-05-07T10:40:27;16.07;35.67
65291;SHT30;51893;59.754;10.110;2023-05-07T10:42:59;16.12;36.22
65291;SHT30;51893;59.754;10.110;2023-05-07T10:45:39;16.28;35.96
65291;SHT30;51893;59.754;10.110;2023-05-07T10:54:17;16.75;35.75
65291;SHT30;51893;59.754;10.110;2023-05-07T10:56:40;16.76;35.50
65291;SHT30;51893;59.754;10.110;2023-05-07T11:04:26;16.70;37.18
65291;SHT30;51893;59.754;10.110;2023-05-07T11:15:07;17.00;35.91
65291;SHT30;51893;59.754;10.110;2023-05-07T11:17:53;16.85;39.09
65291;SHT30;51893;59.754;10.110;2023-05-07T11:26:07;17.02;38.81
65291;SHT30;51893;59.754;10.110;2023-05-07T11:28:38;17.14;37.91
65291;SHT30;51893;59.754;10.110;2023-05-07T11:31:09;17.22;36.56
65291;SHT30;51893;59.754;10.110;2023-05-07T11:33:38;17.23;36.00
65291;SHT30;51893;59.754;10.110;2023-05-07T11:36:07;17.19;35.21
65291;SHT30;51893;59.754;10.110;2023-05-07T11:38:37;17.30;35.97
65291;SHT30;51893;59.754;10.110;2023-05-07T11:41:06;17.41;34.60
65291;SHT30;51893;59.754;10.110;2023-05-07T11:43:36;17.53;34.39
65291;SHT30;51893;59.754;10.110;2023-05-07T11:46:07;17.54;33.26
65291;SHT30;51893;59.754;10.110;2023-05-07T11:48:38;17.44;32.64
65291;SHT30;51893;59.754;10.110;2023-05-07T11:51:07;17.38;32.82
65291;SHT30;51893;59.754;10.110;2023-05-07T11:53:42;17.45;32.94
65291;SHT30;51893;59.754;10.110;2023-05-07T11:56:11;17.51;32.58
65291;SHT30;51893;59.754;10.110;2023-05-07T11:58:42;17.52;32.54
65291;SHT30;51893;59.754;10.110;2023-05-07T12:01:12;17.54;33.02
65291;SHT30;51893;59.754;10.110;2023-05-07T12:03:43;17.72;32.73
65291;SHT30;51893;59.754;10.110;2023-05-07T12:06:14;17.87;33.11
65291;SHT30;51893;59.754;10.110;2023-05-07T12:08:50;17.95;32.42
65291;SHT30;51893;59.754;10.110;2023-05-07T12:11:22;17.98;32.21
65291;SHT30;51893;59.754;10.110;2023-05-07T12:13:53;17.96;32.35
65291;SHT30;51893;59.754;10.110;2023-05-07T12:16:26;18.08;32.52
65291;SHT30;51893;59.754;10.110;2023-05-07T12:18:55;18.24;32.46
65291;SHT30;51893;59.754;10.110;2023-05-07T12:21:29;18.31;32.38
65291;SHT30;51893;59.754;10.110;2023-05-07T12:23:57;18.36;31.73
65291;SHT30;51893;59.754;10.110;2023-05-07T12:26:27;18.47;32.32
65291;SHT30;51893;59.754;10.110;2023-05-07T12:28:57;18.61;32.10
65291;SHT30;51893;59.754;10.110;2023-05-07T12:31:28;18.61;31.65
65291;SHT30;51893;59.754;10.110;2023-05-07T12:34:02;18.68;31.64
65291;SHT30;51893;59.754;10.110;2023-05-07T12:36:38;18.65;31.07
65291;SHT30;51893;59.754;10.110;2023-05-07T12:39:08;18.73;31.49
65291;SHT30;51893;59.754;10.110;2023-05-07T12:44:31;18.62;31.07
65291;SHT30;51893;59.754;10.110;2023-05-07T12:47:02;18.48;30.55
65291;SHT30;51893;59.754;10.110;2023-05-07T12:49:34;18.35;31.54
65291;SHT30;51893;59.754;10.110;2023-05-07T12:52:05;18.40;31.84
65291;SHT30;51893;59.754;10.110;2023-05-07T12:54:45;18.49;32.17
65291;SHT30;51893;59.754;10.110;2023-05-07T12:57:14;18.57;32.22
65291;SHT30;51893;59.754;10.110;2023-05-07T12:59:49;18.66;32.11
65291;SHT30;51893;59.754;10.110;2023-05-07T13:02:32;18.55;30.99
65291;SHT30;51893;59.754;10.110;2023-05-07T13:05:03;18.48;30.61
65291;SHT30;51893;59.754;10.110;2023-05-07T13:07:37;18.66;31.75
65291;SHT30;51893;59.754;10.110;2023-05-07T13:10:11;18.83;31.67
65291;SHT30;51893;59.754;10.110;2023-05-07T13:12:40;19.10;31.90
65291;SHT30;51893;59.754;10.110;2023-05-07T13:15:10;19.19;31.15
65291;SHT30;51893;59.754;10.110;2023-05-07T13:17:39;19.21;30.74
65291;SHT30;51893;59.754;10.110;2023-05-07T13:20:12;19.33;32.06
65291;SHT30;51893;59.754;10.110;2023-05-07T13:22:46;19.45;32.12
65291;SHT30;51893;59.754;10.110;2023-05-07T13:25:19;19.57;32.50
65291;SHT30;51893;59.754;10.110;2023-05-07T13:27:51;19.56;32.17
65291;SHT30;51893;59.754;10.110;2023-05-07T13:30:37;19.50;32.60
65291;SHT30;51893;59.754;10.110;2023-05-07T13:33:28;19.38;31.85
65291;SHT30;51893;59.754;10.110;2023-05-07T13:36:01;19.30;32.88
65291;SHT30;51893;59.754;10.110;2023-05-07T13:38:34;19.34;33.40
65291;SHT30;51893;59.754;10.110;2023-05-07T13:41:02;19.25;33.06
65291;SHT30;51893;59.754;10.110;2023-05-07T13:43:31;19.29;33.53
65291;SHT30;51893;59.754;10.110;2023-05-07T13:46:01;19.35;33.50
65291;SHT30;51893;59.754;10.110;2023-05-07T13:48:34;19.23;33.15
65291;SHT30;51893;59.754;10.110;2023-05-07T13:51:05;19.26;33.67
65291;SHT30;51893;59.754;10.110;2023-05-07T13:53:39;19.29;33.73
65291;SHT30;51893;59.754;10.110;2023-05-07T13:56:10;19.34;33.13
65291;SHT30;51893;59.754;10.110;2023-05-07T13:58:41;19.22;33.35
65291;SHT30;51893;59.754;10.110;2023-05-07T14:01:27;19.26;33.77
65291;SHT30;51893;59.754;10.110;2023-05-07T14:03:56;19.37;34.50
65291;SHT30;51893;59.754;10.110;2023-05-07T14:06:25;19.49;34.52
65291;SHT30;51893;59.754;10.110;2023-05-07T14:08:54;19.52;34.48
65291;SHT30;51893;59.754;10.110;2023-05-07T14:11:27;19.58;34.51
65291;SHT30;51893;59.754;10.110;2023-05-07T14:13:56;19.61;34.75
65291;SHT30;51893;59.754;10.110;2023-05-07T14:16:27;19.58;34.46
65291;SHT30;51893;59.754;10.110;2023-05-07T14:18:56;19.41;34.20
65291;SHT30;51893;59.754;10.110;2023-05-07T14:21:27;19.37;34.30
65291;SHT30;51893;59.754;10.110;2023-05-07T14:23:55;19.30;34.15
65291;SHT30;51893;59.754;10.110;2023-05-07T14:26:24;19.12;34.11
65291;SHT30;51893;59.754;10.110;2023-05-07T14:28:54;19.16;34.50
65291;SHT30;51893;59.754;10.110;2023-05-07T14:31:25;19.19;34.61
65291;SHT30;51893;59.754;10.110;2023-05-07T14:33:55;19.19;34.39
65291;SHT30;51893;59.754;10.110;2023-05-07T14:36:25;19.21;34.41
65291;SHT30;51893;59.754;10.110;2023-05-07T14:38:54;19.20;34.04
65291;SHT30;51893;59.754;10.110;2023-05-07T14:41:23;19.11;33.96
65291;SHT30;51893;59.754;10.110;2023-05-07T14:43:51;19.07;34.23
65291;SHT30;51893;59.754;10.110;2023-05-07T14:46:20;19.23;34.73
65291;SHT30;51893;59.754;10.110;2023-05-07T14:48:52;19.29;34.55
65291;SHT30;51893;59.754;10.110;2023-05-07T14:51:20;19.41;34.26
65291;SHT30;51893;59.754;10.110;2023-05-07T14:53:50;19.41;33.92
65291;SHT30;51893;59.754;10.110;2023-05-07T14:56:20;19.45;33.64
65291;SHT30;51893;59.754;10.110;2023-05-07T14:58:49;19.27;34.06
65291;SHT30;51893;59.754;10.110;2023-05-07T15:01:20;19.32;34.74
65291;SHT30;51893;59.754;10.110;2023-05-07T15:03:54;19.27;33.39
65291;SHT30;51893;59.754;10.110;2023-05-07T15:06:22;19.16;33.57
65291;SHT30;51893;59.754;10.110;2023-05-07T15:08:52;19.18;33.62
65291;SHT30;51893;59.754;10.110;2023-05-07T15:11:23;19.13;33.16
65291;SHT30;51893;59.754;10.110;2023-05-07T15:13:51;19.09;33.17
65291;SHT30;51893;59.754;10.110;2023-05-07T15:16:19;18.98;32.66
65291;SHT30;51893;59.754;10.110;2023-05-07T15:18:51;18.93;32.72
65291;SHT30;51893;59.754;10.110;2023-05-07T15:21:20;19.04;32.95
65291;SHT30;51893;59.754;10.110;2023-05-07T15:23:49;19.08;32.76
65291;SHT30;51893;59.754;10.110;2023-05-07T15:26:23;19.05;32.51
65291;SHT30;51893;59.754;10.110;2023-05-07T15:28:51;19.07;32.19
65291;SHT30;51893;59.754;10.110;2023-05-07T15:31:19;19.10;32.16
65291;SHT30;51893;59.754;10.110;2023-05-07T15:33:48;19.12;31.83
65291;SHT30;51893;59.754;10.110;2023-05-07T15:36:16;19.10;31.98
65291;SHT30;51893;59.754;10.110;2023-05-07T15:38:45;19.06;31.51
65291;SHT30;51893;59.754;10.110;2023-05-07T15:41:13;18.99;31.04
65291;SHT30;51893;59.754;10.110;2023-05-07T15:43:43;18.91;31.25
65291;SHT30;51893;59.754;10.110;2023-05-07T15:46:18;18.92;31.38
65291;SHT30;51893;59.754;10.110;2023-05-07T15:49:02;18.78;30.44
65291;SHT30;51893;59.754;10.110;2023-05-07T15:51:33;18.60;30.75
65291;SHT30;51893;59.754;10.110;2023-05-07T15:54:03;18.52;31.14
65291;SHT30;51893;59.754;10.110;2023-05-07T15:56:34;18.47;30.86
65291;SHT30;51893;59.754;10.110;2023-05-07T15:59:03;18.40;30.62
65291;SHT30;51893;59.754;10.110;2023-05-07T16:01:32;18.39;30.77
65291;SHT30;51893;59.754;10.110;2023-05-07T16:04:02;18.32;30.44
65291;SHT30;51893;59.754;10.110;2023-05-07T16:06:30;18.34;30.33
65291;SHT30;51893;59.754;10.110;2023-05-07T16:09:02;18.35;30.34
65291;SHT30;51893;59.754;10.110;2023-05-07T16:11:34;18.23;29.85
65291;SHT30;51893;59.754;10.110;2023-05-07T16:14:03;18.11;30.11
65291;SHT30;51893;59.754;10.110;2023-05-07T16:16:32;18.07;29.91
65291;SHT30;51893;59.754;10.110;2023-05-07T16:19:01;18.04;29.66
65291;SHT30;51893;59.754;10.110;2023-05-07T16:21:29;17.94;29.56